sensor_id;sensor_type;location;lat;lon;timestamp;temperature;humidity
70762;DHT22;58360;0.000;0.000;2023-11-19T00:01:26;14.20;99.90
70762;DHT22;58360;0.000;0.000;2023-11-19T00:03:52;14.20;99.90
70762;DHT22;58360;0.000;0.000;2023-11-19T00:06:18;14.10;99.90
70762;DHT22;58360;0.000;0.000;2023-11-19T00:08:44;14.20;99.90
70762;DHT22;58360;0.000;0.000;2023-11-19T00:11:09;14.20;99.90
70762;DHT22;58360;0.000;0.000;2023-11-19T00:13:36;14.20;99.90
70762;DHT22;58360;0.000;0.000;2023-11-19T00:16:01;14.20;99.90
70762;DHT22;58360;0.000;0.000;2023-11-19T00:18:29;14.20;99.90
70762;DHT22;58360;0.000;0.000;2023-11-19T00:20:55;14.30;99.90
70762;DHT22;58360;0.000;0.000;2023-11-19T00:23:20;14.20;99.90
70762;DHT22;58360;0.000;0.000;2023-11-19T00:25:46;14.20;99.90
70762;DHT22;58360;0.000;0.000;2023-11-19T00:28:13;14.20;99.90
70762;DHT22;58360;0.000;0.000;2023-11-19T00:30:38;14.10;99.90
70762;DHT22;58360;0.000;0.000;2023-11-19T00:33:06;14.10;99.90
70762;DHT22;58360;0.000;0.000;2023-11-19T00:35:31;14.20;99.90
70762;DHT22;58360;0.000;0.000;2023-11-19T00:37:57;14.20;99.90
70762;DHT22;58360;0.000;0.000;2023-11-19T00:40:23;14.20;99.90
70762;DHT22;58360;0.000;0.000;2023-11-19T00:42:49;14.20;99.90
70762;DHT22;58360;0.000;0.000;2023-11-19T00:45:14;14.10;99.90
70762;DHT22;58360;0.000;0.000;2023-11-19T00:47:40;14.10;99.90
70762;DHT22;58360;0.000;0.000;2023-11-19T00:50:06;14.10;99.90
70762;DHT22;58360;0.000;0.000;2023-11-19T00:52:34;14.10;99.90
70762;DHT22;58360;0.000;0.000;2023-11-19T00:55:01;14.10;99.90
70762;DHT22;58360;0.000;0.000;2023-11-19T00:57:26;14.20;99.90
70762;DHT22;58360;0.000;0.000;2023-11-19T00:59:52;14.20;99.90
70762;DHT22;58360;0.000;0.000;2023-11-19T01:02:17;14.20;99.90
70762;DHT22;58360;0.000;0.000;2023-11-19T01:04:43;14.30;99.90
70762;DHT22;58360;0.000;0.000;2023-11-19T01:07:09;14.30;99.90
70762;DHT22;58360;0.000;0.000;2023-11-19T01:09:38;14.30;99.90
70762;DHT22;58360;0.000;0.000;2023-11-19T01:12:04;14.30;99.90
70762;DHT22;58360;0.000;0.000;2023-11-19T01:14:30;14.20;99.90
70762;DHT22;58360;0.000;0.000;2023-11-19T01:16:56;14.10;99.90
70762;DHT22;58360;0.000;0.000;2023-11-19T01:19:21;14.20;99.90
70762;DHT22;58360;0.000;0.000;2023-11-19T01:21:48;14.20;99.90
70762;DHT22;58360;0.000;0.000;2023-11-19T01:24:13;14.20;99.90
70762;DHT22;58360;0.000;0.000;2023-11-19T01:26:39;14.20;99.90
70762;DHT22;58360;0.000;0.000;2023-11-19T01:29:16;14.20;99.90
70762;DHT22;58360;0.000;0.000;2023-11-19T01:31:42;14.20;99.90
70762;DHT22;58360;0.000;0.000;2023-11-19T01:34:08;14.30;99.90
70762;DHT22;58360;0.000;0.000;2023-11-19T01:36:33;14.40;99.90
70762;DHT22;58360;0.000;0.000;2023-11-19T01:38:59;14.40;99.90
70762;DHT22;58360;0.000;0.000;2023-11-19T01:41:24;14.50;99.90
70762;DHT22;58360;0.000;0.000;2023-11-19T01:43:50;14.40;99.90
70762;DHT22;58360;0.000;0.000;2023-11-19T01:46:16;14.30;99.90
70762;DHT22;58360;0.000;0.000;2023-11-19T01:48:42;14.30;99.90
70762;DHT22;58360;0.000;0.000;2023-11-19T01:51:09;14.30;99.90
70762;DHT22;58360;0.000;0.000;2023-11-19T01:53:35;14.40;99.90
70762;DHT22;58360;0.000;0.000;2023-11-19T01:56:02;14.40;99.90
70762;DHT22;58360;0.000;0.000;2023-11-19T01:58:28;14.50;99.90
70762;DHT22;58360;0.000;0.000;2023-11-19T02:00:55;14.40;99.90
70762;DHT22;58360;0.000;0.000;2023-11-19T02:03:21;14.40;99.90
70762;DHT22;58360;0.000;0.000;2023-11-19T02:05:48;14.30;99.90
70762;DHT22;58360;0.000;0.000;2023-11-19T02:08:14;14.40;99.90
70762;DHT22;58360;0.000;0.000;2023-11-19T02:10:39;14.40;99.90
70762;DHT22;58360;0.000;0.000;2023-11-19T02:13:05;14.30;99.90
70762;DHT22;58360;0.000;0.000;2023-11-19T02:15:32;14.30;99.90
70762;DHT22;58360;0.000;0.000;2023-11-19T02:18:16;14.10;99.90
70762;DHT22;58360;0.000;0.000;2023-11-19T02:20:42;14.10;99.90
70762;DHT22;58360;0.000;0.000;2023-11-19T02:23:07;14.20;99.90
70762;DHT22;58360;0.000;0.000;2023-11-19T02:25:33;14.20;99.90
70762;DHT22;58360;0.000;0.000;2023-11-19T02:27:59;14.20;99.90
70762;DHT22;58360;0.000;0.000;2023-11-19T02:30:26;14.10;99.90
70762;DHT22;58360;0.000;0.000;2023-11-19T02:32:55;14.00;99.90
70762;DHT22;58360;0.000;0.000;2023-11-19T02:35:23;13.90;99.90
70762;DHT22;58360;0.000;0.000;2023-11-19T02:37:48;13.80;99.90
70762;DHT22;58360;0.000;0.000;2023-11-19T02:40:14;13.90;99.90
70762;DHT22;58360;0.000;0.000;2023-11-19T02:42:39;13.80;99.90
70762;DHT22;58360;0.000;0.000;2023-11-19T02:45:05;13.80;99.90
70762;DHT22;58360;0.000;0.000;2023-11-19T02:47:33;13.80;99.90
70762;DHT22;58360;0.000;0.000;2023-11-19T02:49:59;13.90;99.90
70762;DHT22;58360;0.000;0.000;2023-11-19T02:52:24;13.80;99.90
70762;DHT22;58360;0.000;0.000;2023-11-19T02:54:50;13.80;99.90
70762;DHT22;58360;0.000;0.000;2023-11-19T02:57:16;13.80;99.90
70762;DHT22;58360;0.000;0.000;2023-11-19T02:59:44;13.80;99.90
70762;DHT22;58360;0.000;0.000;2023-11-19T03:02:10;13.80;99.90
70762;DHT22;58360;0.000;0.000;2023-11-19T03:04:41;13.60;99.90
70762;DHT22;58360;0.000;0.000;2023-11-19T03:07:08;13.70;99.90
70762;DHT22;58360;0.000;0.000;2023-11-19T03:09:34;13.60;99.90
70762;DHT22;58360;0.000;0.000;2023-11-19T03:12:05;13.60;99.90
70762;DHT22;58360;0.000;0.000;2023-11-19T03:14:33;13.60;99.90
70762;DHT22;58360;0.000;0.000;2023-11-19T03:16:59;13.70;99.90
70762;DHT22;58360;0.000;0.000;2023-11-19T03:19:25;13.70;99.90
70762;DHT22;58360;0.000;0.000;2023-11-19T03:21:52;13.60;99.90
70762;DHT22;58360;0.000;0.000;2023-11-19T03:24:17;13.60;99.90
70762;DHT22;58360;0.000;0.000;2023-11-19T03:26:47;13.50;99.90
70762;DHT22;58360;0.000;0.000;2023-11-19T03:29:12;13.60;99.90
70762;DHT22;58360;0.000;0.000;2023-11-19T03:31:41;13.60;99.90
70762;DHT22;58360;0.000;0.000;2023-11-19T03:34:07;13.60;99.90
70762;DHT22;58360;0.000;0.000;2023-11-19T03:36:32;13.50;99.90
70762;DHT22;58360;0.000;0.000;2023-11-19T03:38:59;13.50;99.90
70762;DHT22;58360;0.000;0.000;2023-11-19T03:41:24;13.50;99.90
70762;DHT22;58360;0.000;0.000;2023-11-19T03:43:50;13.40;99.90
70762;DHT22;58360;0.000;0.000;2023-11-19T03:46:18;13.40;99.90
70762;DHT22;58360;0.000;0.000;2023-11-19T03:48:44;13.40;99.90
70762;DHT22;58360;0.000;0.000;2023-11-19T03:51:11;13.40;99.90
70762;DHT22;58360;0.000;0.000;2023-11-19T03:53:43;13.50;99.90
70762;DHT22;58360;0.000;0.000;2023-11-19T03:56:09;13.40;99.90
70762;DHT22;58360;0.000;0.000;2023-11-19T03:58:35;13.50;99.90
70762;DHT22;58360;0.000;0.000;2023-11-19T04:01:01;13.60;99.90
70762;DHT22;58360;0.000;0.000;2023-11-19T04:03:27;13.60;99.90
70762;DHT22;58360;0.000;0.000;2023-11-19T04:05:53;13.50;99.90
70762;DHT22;58360;0.000;0.000;2023-11-19T04:08:19;13.50;99.90
70762;DHT22;58360;0.000;0.000;2023-11-19T04:10:44;13.40;99.90
70762;DHT22;58360;0.000;0.000;2023-11-19T04:13:10;13.30;99.90
70762;DHT22;58360;0.000;0.000;2023-11-19T04:15:36;13.20;99.90
70762;DHT22;58360;0.000;0.000;2023-11-19T04:18:01;13.20;99.90
70762;DHT22;58360;0.000;0.000;2023-11-19T04:20:27;13.20;99.90
70762;DHT22;58360;0.000;0.000;2023-11-19T04:22:52;13.30;99.90
70762;DHT22;58360;0.000;0.000;2023-11-19T04:25:19;13.20;99.90
70762;DHT22;58360;0.000;0.000;2023-11-19T04:27:44;13.20;99.90
70762;DHT22;58360;0.000;0.000;2023-11-19T04:30:10;13.10;99.90
70762;DHT22;58360;0.000;0.000;2023-11-19T04:32:36;13.10;99.90
70762;DHT22;58360;0.000;0.000;2023-11-19T04:35:02;13.10;99.90
70762;DHT22;58360;0.000;0.000;2023-11-19T04:37:28;13.10;99.90
70762;DHT22;58360;0.000;0.000;2023-11-19T04:39:54;13.20;99.90
70762;DHT22;58360;0.000;0.000;2023-11-19T04:42:21;13.20;99.90
70762;DHT22;58360;0.000;0.000;2023-11-19T04:44:47;13.10;99.90
70762;DHT22;58360;0.000;0.000;2023-11-19T04:47:13;13.10;99.90
70762;DHT22;58360;0.000;0.000;2023-11-19T04:49:42;13.10;99.90
70762;DHT22;58360;0.000;0.000;2023-11-19T04:52:11;13.10;99.90
70762;DHT22;58360;0.000;0.000;2023-11-19T04:54:43;13.00;99.90
70762;DHT22;58360;0.000;0.000;2023-11-19T04:57:09;13.00;99.90
70762;DHT22;58360;0.000;0.000;2023-11-19T04:59:37;13.00;99.90
70762;DHT22;58360;0.000;0.000;2023-11-19T05:02:03;13.00;99.90
70762;DHT22;58360;0.000;0.000;2023-11-19T05:04:29;12.90;99.90
70762;DHT22;58360;0.000;0.000;2023-11-19T05:06:55;12.90;99.90
70762;DHT22;58360;0.000;0.000;2023-11-19T05:09:20;12.90;99.90
70762;DHT22;58360;0.000;0.000;2023-11-19T05:11:46;12.80;99.90
70762;DHT22;58360;0.000;0.000;2023-11-19T05:14:11;12.80;99.90
70762;DHT22;58360;0.000;0.000;2023-11-19T05:16:39;12.80;99.90
70762;DHT22;58360;0.000;0.000;2023-11-19T05:19:04;12.70;99.90
70762;DHT22;58360;0.000;0.000;2023-11-19T05:21:30;12.70;99.90
70762;DHT22;58360;0.000;0.000;2023-11-19T05:23:55;12.70;99.90
70762;DHT22;58360;0.000;0.000;2023-11-19T05:26:22;12.70;99.90
70762;DHT22;58360;0.000;0.000;2023-11-19T05:28:48;12.70;99.90
70762;DHT22;58360;0.000;0.000;2023-11-19T05:31:14;12.70;99.90
70762;DHT22;58360;0.000;0.000;2023-11-19T05:33:39;12.70;99.90
70762;DHT22;58360;0.000;0.000;2023-11-19T05:36:05;12.70;99.90
70762;DHT22;58360;0.000;0.000;2023-11-19T05:38:33;12.70;99.90
70762;DHT22;58360;0.000;0.000;2023-11-19T05:40:59;12.70;99.90
70762;DHT22;58360;0.000;0.000;2023-11-19T05:43:24;12.70;99.90
70762;DHT22;58360;0.000;0.000;2023-11-19T05:45:50;12.60;99.90
70762;DHT22;58360;0.000;0.000;2023-11-19T05:48:16;12.60;99.90
70762;DHT22;58360;0.000;0.000;2023-11-19T05:50:42;12.60;99.90
70762;DHT22;58360;0.000;0.000;2023-11-19T05:53:07;12.50;99.90
70762;DHT22;58360;0.000;0.000;2023-11-19T05:55:38;12.60;99.90
70762;DHT22;58360;0.000;0.000;2023-11-19T05:58:11;12.50;99.90
70762;DHT22;58360;0.000;0.000;2023-11-19T06:00:38;12.50;99.90
70762;DHT22;58360;0.000;0.000;2023-11-19T06:03:04;12.50;99.90
70762;DHT22;58360;0.000;0.000;2023-11-19T06:05:30;12.50;99.90
70762;DHT22;58360;0.000;0.000;2023-11-19T06:07:55;12.50;99.90
70762;DHT22;58360;0.000;0.000;2023-11-19T06:10:22;12.50;99.90
70762;DHT22;58360;0.000;0.000;2023-11-19T06:12:54;12.50;99.90
70762;DHT22;58360;0.000;0.000;2023-11-19T06:15:22;12.50;99.90
70762;DHT22;58360;0.000;0.000;2023-11-19T06:17:47;12.50;99.90
70762;DHT22;58360;0.000;0.000;2023-11-19T06:20:13;12.60;99.90
70762;DHT22;58360;0.000;0.000;2023-11-19T06:22:39;12.60;99.90
70762;DHT22;58360;0.000;0.000;2023-11-19T06:25:07;12.70;99.90
70762;DHT22;58360;0.000;0.000;2023-11-19T06:27:33;12.80;99.90
70762;DHT22;58360;0.000;0.000;2023-11-19T06:29:59;12.70;99.90
70762;DHT22;58360;0.000;0.000;2023-11-19T06:32:24;12.70;99.90
70762;DHT22;58360;0.000;0.000;2023-11-19T06:34:50;12.70;99.90
70762;DHT22;58360;0.000;0.000;2023-11-19T06:37:15;12.70;99.90
70762;DHT22;58360;0.000;0.000;2023-11-19T06:39:41;12.60;99.90
70762;DHT22;58360;0.000;0.000;2023-11-19T06:42:06;12.50;99.90
70762;DHT22;58360;0.000;0.000;2023-11-19T06:44:32;12.40;99.90
70762;DHT22;58360;0.000;0.000;2023-11-19T06:46:58;12.40;99.90
70762;DHT22;58360;0.000;0.000;2023-11-19T06:49:23;12.30;99.90
70762;DHT22;58360;0.000;0.000;2023-11-19T06:51:50;12.30;99.90
70762;DHT22;58360;0.000;0.000;2023-11-19T06:54:15;12.30;99.90
70762;DHT22;58360;0.000;0.000;2023-11-19T06:56:41;12.30;99.90
70762;DHT22;58360;0.000;0.000;2023-11-19T06:59:07;12.30;99.90
70762;DHT22;58360;0.000;0.000;2023-11-19T07:01:36;12.20;99.90
70762;DHT22;58360;0.000;0.000;2023-11-19T07:04:02;12.30;99.90
70762;DHT22;58360;0.000;0.000;2023-11-19T07:06:35;12.30;99.90
70762;DHT22;58360;0.000;0.000;2023-11-19T07:09:00;12.30;99.90
70762;DHT22;58360;0.000;0.000;2023-11-19T07:11:41;12.30;99.90
70762;DHT22;58360;0.000;0.000;2023-11-19T07:14:09;12.30;99.90
70762;DHT22;58360;0.000;0.000;2023-11-19T07:16:35;12.30;99.90
70762;DHT22;58360;0.000;0.000;2023-11-19T07:19:03;12.30;99.90
70762;DHT22;58360;0.000;0.000;2023-11-19T07:21:28;12.40;99.90
70762;DHT22;58360;0.000;0.000;2023-11-19T07:23:57;12.40;99.90
70762;DHT22;58360;0.000;0.000;2023-11-19T07:26:23;12.30;99.90
70762;DHT22;58360;0.000;0.000;2023-11-19T07:28:49;12.40;99.90
70762;DHT22;58360;0.000;0.000;2023-11-19T07:31:15;12.40;99.90
70762;DHT22;58360;0.000;0.000;2023-11-19T07:33:40;12.40;99.90
70762;DHT22;58360;0.000;0.000;2023-11-19T07:36:08;12.40;99.90
70762;DHT22;58360;0.000;0.000;2023-11-19T07:38:34;12.40;99.90
70762;DHT22;58360;0.000;0.000;2023-11-19T07:40:59;12.40;99.90
70762;DHT22;58360;0.000;0.000;2023-11-19T07:43:25;12.50;99.90
70762;DHT22;58360;0.000;0.000;2023-11-19T07:45:51;12.50;99.90
70762;DHT22;58360;0.000;0.000;2023-11-19T07:48:16;12.60;99.90
70762;DHT22;58360;0.000;0.000;2023-11-19T07:50:43;12.60;99.90
70762;DHT22;58360;0.000;0.000;2023-11-19T07:53:08;12.60;99.90
70762;DHT22;58360;0.000;0.000;2023-11-19T07:55:34;12.60;99.90
70762;DHT22;58360;0.000;0.000;2023-11-19T07:58:00;12.60;99.90
70762;DHT22;58360;0.000;0.000;2023-11-19T08:00:26;12.60;99.90
70762;DHT22;58360;0.000;0.000;2023-11-19T08:02:52;12.60;99.90
70762;DHT22;58360;0.000;0.000;2023-11-19T08:05:17;12.60;99.90
70762;DHT22;58360;0.000;0.000;2023-11-19T08:07:43;12.70;99.90
70762;DHT22;58360;0.000;0.000;2023-11-19T08:10:08;12.70;99.90
70762;DHT22;58360;0.000;0.000;2023-11-19T08:12:37;12.70;99.90
70762;DHT22;58360;0.000;0.000;2023-11-19T08:15:03;12.80;99.90
70762;DHT22;58360;0.000;0.000;2023-11-19T08:17:30;12.80;99.90
70762;DHT22;58360;0.000;0.000;2023-11-19T08:19:55;12.80;99.90
70762;DHT22;58360;0.000;0.000;2023-11-19T08:22:21;12.80;99.90
70762;DHT22;58360;0.000;0.000;2023-11-19T08:24:48;12.80;99.90
70762;DHT22;58360;0.000;0.000;2023-11-19T08:27:13;12.90;99.90
70762;DHT22;58360;0.000;0.000;2023-11-19T08:29:39;13.00;99.90
70762;DHT22;58360;0.000;0.000;2023-11-19T08:32:05;13.00;99.90
70762;DHT22;58360;0.000;0.000;2023-11-19T08:34:31;13.10;99.90
70762;DHT22;58360;0.000;0.000;2023-11-19T08:36:57;13.10;99.90
70762;DHT22;58360;0.000;0.000;2023-11-19T08:39:22;13.20;99.90
70762;DHT22;58360;0.000;0.000;2023-11-19T08:41:48;13.20;99.90
70762;DHT22;58360;0.000;0.000;2023-11-19T08:44:14;13.20;99.90
70762;DHT22;58360;0.000;0.000;2023-11-19T08:46:46;13.20;99.90
70762;DHT22;58360;0.000;0.000;2023-11-19T08:49:11;13.20;99.90
70762;DHT22;58360;0.000;0.000;2023-11-19T08:51:37;13.20;99.90
70762;DHT22;58360;0.000;0.000;2023-11-19T08:54:02;13.20;99.90
70762;DHT22;58360;0.000;0.000;2023-11-19T08:56:28;13.20;99.90
70762;DHT22;58360;0.000;0.000;2023-11-19T08:58:58;13.20;99.90
70762;DHT22;58360;0.000;0.000;2023-11-19T09:01:23;13.10;99.90
70762;DHT22;58360;0.000;0.000;2023-11-19T09:03:50;13.10;99.90
70762;DHT22;58360;0.000;0.000;2023-11-19T09:06:15;13.10;99.90
70762;DHT22;58360;0.000;0.000;2023-11-19T09:08:42;13.20;99.90
70762;DHT22;58360;0.000;0.000;2023-11-19T09:11:07;13.30;99.90
70762;DHT22;58360;0.000;0.000;2023-11-19T09:13:34;13.40;99.90
70762;DHT22;58360;0.000;0.000;2023-11-19T09:16:00;13.30;99.90
70762;DHT22;58360;0.000;0.000;2023-11-19T09:18:31;13.20;99.90
70762;DHT22;58360;0.000;0.000;2023-11-19T09:20:57;13.20;99.90
70762;DHT22;58360;0.000;0.000;2023-11-19T09:23:23;13.20;99.90
70762;DHT22;58360;0.000;0.000;2023-11-19T09:25:50;13.20;99.90
70762;DHT22;58360;0.000;0.000;2023-11-19T09:28:16;13.20;99.90
70762;DHT22;58360;0.000;0.000;2023-11-19T09:30:41;13.30;99.90
70762;DHT22;58360;0.000;0.000;2023-11-19T09:33:07;13.30;99.90
70762;DHT22;58360;0.000;0.000;2023-11-19T09:35:33;13.40;99.90
70762;DHT22;58360;0.000;0.000;2023-11-19T09:37:58;13.40;99.90
70762;DHT22;58360;0.000;0.000;2023-11-19T09:40:24;13.30;99.90
70762;DHT22;58360;0.000;0.000;2023-11-19T09:42:50;13.30;99.90
70762;DHT22;58360;0.000;0.000;2023-11-19T09:45:16;13.20;99.90
70762;DHT22;58360;0.000;0.000;2023-11-19T09:47:43;13.30;99.90
70762;DHT22;58360;0.000;0.000;2023-11-19T09:50:11;13.30;99.90
70762;DHT22;58360;0.000;0.000;2023-11-19T09:52:39;13.40;99.90
70762;DHT22;58360;0.000;0.000;2023-11-19T09:55:04;13.30;99.90
70762;DHT22;58360;0.000;0.000;2023-11-19T09:57:30;13.30;99.90
70762;DHT22;58360;0.000;0.000;2023-11-19T09:59:56;13.20;99.90
70762;DHT22;58360;0.000;0.000;2023-11-19T10:02:23;13.40;99.90
70762;DHT22;58360;0.000;0.000;2023-11-19T10:04:49;13.40;99.90
70762;DHT22;58360;0.000;0.000;2023-11-19T10:07:15;13.50;99.90
70762;DHT22;58360;0.000;0.000;2023-11-19T10:09:41;13.50;99.90
70762;DHT22;58360;0.000;0.000;2023-11-19T10:12:06;13.50;99.90
70762;DHT22;58360;0.000;0.000;2023-11-19T10:14:32;13.50;99.90
70762;DHT22;58360;0.000;0.000;2023-11-19T10:17:01;13.40;99.90
70762;DHT22;58360;0.000;0.000;2023-11-19T10:19:29;13.30;99.90
70762;DHT22;58360;0.000;0.000;2023-11-19T10:21:54;13.40;99.90
70762;DHT22;58360;0.000;0.000;2023-11-19T10:24:33;13.50;99.90
70762;DHT22;58360;0.000;0.000;2023-11-19T10:27:01;13.60;99.90
70762;DHT22;58360;0.000;0.000;2023-11-19T10:29:31;13.60;99.90
70762;DHT22;58360;0.000;0.000;2023-11-19T10:31:57;13.70;99.90
70762;DHT22;58360;0.000;0.000;2023-11-19T10:34:26;13.80;99.90
70762;DHT22;58360;0.000;0.000;2023-11-19T10:36:52;14.00;99.90
70762;DHT22;58360;0.000;0.000;2023-11-19T10:39:17;14.00;99.90
70762;DHT22;58360;0.000;0.000;2023-11-19T10:41:43;14.10;99.90
70762;DHT22;58360;0.000;0.000;2023-11-19T10:44:08;14.00;99.90
70762;DHT22;58360;0.000;0.000;2023-11-19T10:46:40;14.10;99.90
70762;DHT22;58360;0.000;0.000;2023-11-19T10:49:07;14.20;99.90
70762;DHT22;58360;0.000;0.000;2023-11-19T10:51:33;14.20;99.90
70762;DHT22;58360;0.000;0.000;2023-11-19T10:54:00;14.20;99.90
70762;DHT22;58360;0.000;0.000;2023-11-19T10:56:27;13.90;99.90
70762;DHT22;58360;0.000;0.000;2023-11-19T10:58:55;13.80;99.90
70762;DHT22;58360;0.000;0.000;2023-11-19T11:01:24;13.70;99.90
70762;DHT22;58360;0.000;0.000;2023-11-19T11:03:51;13.70;99.90
70762;DHT22;58360;0.000;0.000;2023-11-19T11:06:19;13.70;99.90
70762;DHT22;58360;0.000;0.000;2023-11-19T11:08:46;13.70;99.90
70762;DHT22;58360;0.000;0.000;2023-11-19T11:11:11;13.70;99.90
70762;DHT22;58360;0.000;0.000;2023-11-19T11:13:39;13.70;99.90
70762;DHT22;58360;0.000;0.000;2023-11-19T11:16:06;13.80;99.90
70762;DHT22;58360;0.000;0.000;2023-11-19T11:18:33;13.80;99.90
70762;DHT22;58360;0.000;0.000;2023-11-19T11:21:00;14.00;99.90
70762;DHT22;58360;0.000;0.000;2023-11-19T11:26:21;14.40;99.90
70762;DHT22;58360;0.000;0.000;2023-11-19T11:31:08;14.20;99.90
70762;DHT22;58360;0.000;0.000;2023-11-19T11:34:09;14.00;99.90
70762;DHT22;58360;0.000;0.000;2023-11-19T11:36:26;14.00;99.90
70762;DHT22;58360;0.000;0.000;2023-11-19T11:38:52;13.90;99.90
70762;DHT22;58360;0.000;0.000;2023-11-19T11:41:22;13.90;99.90
70762;DHT22;58360;0.000;0.000;2023-11-19T11:43:52;14.00;99.90
70762;DHT22;58360;0.000;0.000;2023-11-19T11:49:08;14.30;99.90
70762;DHT22;58360;0.000;0.000;2023-11-19T11:56:43;14.30;99.90
70762;DHT22;58360;0.000;0.000;2023-11-19T11:59:25;14.30;99.90
70762;DHT22;58360;0.000;0.000;2023-11-19T12:01:57;14.30;99.90
70762;DHT22;58360;0.000;0.000;2023-11-19T12:04:26;14.40;99.90
70762;DHT22;58360;0.000;0.000;2023-11-19T12:07:13;14.60;99.90
70762;DHT22;58360;0.000;0.000;2023-11-19T12:09:39;14.70;99.90
70762;DHT22;58360;0.000;0.000;2023-11-19T12:12:19;14.70;99.90
70762;DHT22;58360;0.000;0.000;2023-11-19T12:20:07;14.20;99.90
70762;DHT22;58360;0.000;0.000;2023-11-19T12:22:40;13.90;99.90
70762;DHT22;58360;0.000;0.000;2023-11-19T12:25:07;13.60;99.90
70762;DHT22;58360;0.000;0.000;2023-11-19T12:27:34;13.30;99.90
70762;DHT22;58360;0.000;0.000;2023-11-19T12:30:01;13.20;99.90
70762;DHT22;58360;0.000;0.000;2023-11-19T12:32:27;13.10;99.90
70762;DHT22;58360;0.000;0.000;2023-11-19T12:35:02;13.10;99.90
70762;DHT22;58360;0.000;0.000;2023-11-19T12:37:28;13.10;99.90
70762;DHT22;58360;0.000;0.000;2023-11-19T12:39:57;13.10;99.90
70762;DHT22;58360;0.000;0.000;2023-11-19T12:42:34;13.10;99.90
70762;DHT22;58360;0.000;0.000;2023-11-19T12:45:00;13.10;99.90
70762;DHT22;58360;0.000;0.000;2023-11-19T12:47:25;13.20;99.90
70762;DHT22;58360;0.000;0.000;2023-11-19T12:49:55;13.30;99.90
70762;DHT22;58360;0.000;0.000;2023-11-19T12:52:20;13.40;99.90
70762;DHT22;58360;0.000;0.000;2023-11-19T12:54:47;13.50;99.90
70762;DHT22;58360;0.000;0.000;2023-11-19T12:57:13;13.40;99.90
70762;DHT22;58360;0.000;0.000;2023-11-19T12:59:38;13.30;99.90
70762;DHT22;58360;0.000;0.000;2023-11-19T13:02:04;13.20;99.90
70762;DHT22;58360;0.000;0.000;2023-11-19T13:04:32;13.10;99.90
70762;DHT22;58360;0.000;0.000;2023-11-19T13:07:00;13.10;99.90
70762;DHT22;58360;0.000;0.000;2023-11-19T13:09:29;13.30;99.90
70762;DHT22;58360;0.000;0.000;2023-11-19T13:11:56;13.50;99.90
70762;DHT22;58360;0.000;0.000;2023-11-19T13:14:22;13.90;99.90
70762;DHT22;58360;0.000;0.000;2023-11-19T13:16:48;13.60;99.90
70762;DHT22;58360;0.000;0.000;2023-11-19T13:19:14;13.60;99.90
70762;DHT22;58360;0.000;0.000;2023-11-19T13:21:41;13.60;99.90
70762;DHT22;58360;0.000;0.000;2023-11-19T13:24:07;13.50;99.90
70762;DHT22;58360;0.000;0.000;2023-11-19T13:26:33;13.50;99.90
70762;DHT22;58360;0.000;0.000;2023-11-19T13:28:58;13.30;99.90
70762;DHT22;58360;0.000;0.000;2023-11-19T13:31:24;13.10;99.90
70762;DHT22;58360;0.000;0.000;2023-11-19T13:33:49;12.90;99.90
70762;DHT22;58360;0.000;0.000;2023-11-19T13:36:15;12.90;99.90
70762;DHT22;58360;0.000;0.000;2023-11-19T13:38:40;12.90;99.90
70762;DHT22;58360;0.000;0.000;2023-11-19T13:41:07;12.90;99.90
70762;DHT22;58360;0.000;0.000;2023-11-19T13:43:35;13.00;99.90
70762;DHT22;58360;0.000;0.000;2023-11-19T13:46:01;13.00;99.90
70762;DHT22;58360;0.000;0.000;2023-11-19T13:48:27;13.00;99.90
70762;DHT22;58360;0.000;0.000;2023-11-19T13:50:57;13.00;99.90
70762;DHT22;58360;0.000;0.000;2023-11-19T13:53:23;12.90;99.90
70762;DHT22;58360;0.000;0.000;2023-11-19T13:55:49;13.00;99.90
70762;DHT22;58360;0.000;0.000;2023-11-19T13:58:14;13.00;99.90
70762;DHT22;58360;0.000;0.000;2023-11-19T14:00:41;13.10;99.90
70762;DHT22;58360;0.000;0.000;2023-11-19T14:03:07;13.10;99.90
70762;DHT22;58360;0.000;0.000;2023-11-19T14:05:33;13.10;99.90
70762;DHT22;58360;0.000;0.000;2023-11-19T14:07:58;13.20;99.90
70762;DHT22;58360;0.000;0.000;2023-11-19T14:10:24;13.20;99.90
70762;DHT22;58360;0.000;0.000;2023-11-19T14:12:49;13.30;99.90
70762;DHT22;58360;0.000;0.000;2023-11-19T14:15:15;13.40;99.90
70762;DHT22;58360;0.000;0.000;2023-11-19T14:17:42;13.50;99.90
70762;DHT22;58360;0.000;0.000;2023-11-19T14:20:08;13.60;99.90
70762;DHT22;58360;0.000;0.000;2023-11-19T14:22:43;13.60;99.90
70762;DHT22;58360;0.000;0.000;2023-11-19T14:25:09;13.50;99.90
70762;DHT22;58360;0.000;0.000;2023-11-19T14:27:36;13.40;99.90
70762;DHT22;58360;0.000;0.000;2023-11-19T14:30:03;13.40;99.90
70762;DHT22;58360;0.000;0.000;2023-11-19T14:32:29;13.30;99.90
70762;DHT22;58360;0.000;0.000;2023-11-19T14:34:54;13.30;99.90
70762;DHT22;58360;0.000;0.000;2023-11-19T14:37:20;13.10;99.90
70762;DHT22;58360;0.000;0.000;2023-11-19T14:39:45;13.00;99.90
70762;DHT22;58360;0.000;0.000;2023-11-19T14:42:11;13.00;99.90
70762;DHT22;58360;0.000;0.000;2023-11-19T14:44:37;12.90;99.90
70762;DHT22;58360;0.000;0.000;2023-11-19T14:47:02;12.90;99.90
70762;DHT22;58360;0.000;0.000;2023-11-19T14:49:28;13.00;99.90
70762;DHT22;58360;0.000;0.000;2023-11-19T14:51:53;13.00;99.90
70762;DHT22;58360;0.000;0.000;2023-11-19T14:54:19;13.00;99.90
70762;DHT22;58360;0.000;0.000;2023-11-19T14:56:44;12.90;99.90
70762;DHT22;58360;0.000;0.000;2023-11-19T14:59:10;12.90;99.90
70762;DHT22;58360;0.000;0.000;2023-11-19T15:01:36;12.80;99.90
70762;DHT22;58360;0.000;0.000;2023-11-19T15:04:01;12.90;99.90
70762;DHT22;58360;0.000;0.000;2023-11-19T15:06:27;12.90;99.90
70762;DHT22;58360;0.000;0.000;2023-11-19T15:08:52;12.90;99.90
70762;DHT22;58360;0.000;0.000;2023-11-19T15:11:18;12.90;99.90
70762;DHT22;58360;0.000;0.000;2023-11-19T15:13:44;12.80;99.90
70762;DHT22;58360;0.000;0.000;2023-11-19T15:16:09;12.80;99.90
70762;DHT22;58360;0.000;0.000;2023-11-19T15:18:39;12.80;99.90
70762;DHT22;58360;0.000;0.000;2023-11-19T15:21:05;12.80;99.90
70762;DHT22;58360;0.000;0.000;2023-11-19T15:23:30;12.80;99.90
70762;DHT22;58360;0.000;0.000;2023-11-19T15:25:56;12.70;99.90
70762;DHT22;58360;0.000;0.000;2023-11-19T15:28:22;12.80;99.90
70762;DHT22;58360;0.000;0.000;2023-11-19T15:30:47;12.80;99.90
70762;DHT22;58360;0.000;0.000;2023-11-19T15:33:13;12.80;99.90
70762;DHT22;58360;0.000;0.000;2023-11-19T15:35:38;12.80;99.90
70762;DHT22;58360;0.000;0.000;2023-11-19T15:38:04;12.80;99.90
70762;DHT22;58360;0.000;0.000;2023-11-19T15:40:30;12.70;99.90
70762;DHT22;58360;0.000;0.000;2023-11-19T15:42:56;12.70;99.90
70762;DHT22;58360;0.000;0.000;2023-11-19T15:45:23;12.70;99.90
70762;DHT22;58360;0.000;0.000;2023-11-19T15:47:51;12.70;99.90
70762;DHT22;58360;0.000;0.000;2023-11-19T15:50:17;12.70;99.90
70762;DHT22;58360;0.000;0.000;2023-11-19T15:52:43;12.80;99.90
70762;DHT22;58360;0.000;0.000;2023-11-19T15:55:10;12.70;99.90
70762;DHT22;58360;0.000;0.000;2023-11-19T15:57:37;12.70;99.90
70762;DHT22;58360;0.000;0.000;2023-11-19T16:00:03;12.60;99.90